Time;durP1;ratioP1;P1;durP2;ratioP2;P2;SDS_P1;SDS_P2;PMS_P1;PMS_P2;Temp;Humidity;BMP_temperature;BMP_pressure;BME280_temperature;BME280_humidity;BME280_pressure;Samples;Min_cycle;Max_cycle;Signal;HPM_P1;HPM_P2
2022/08/27 00:01:17;;;;;;;20.30;6.90;;;;;;;;;;4980926;28;46475;-68
2022/08/27 00:03:44;;;;;;;17.60;8.20;;;20.00;43.50;;;;;;4981523;28;46595;-67
2022/08/27 00:06:14;;;;;;;15.63;6.70;;;19.80;47.40;;;;;;4981807;28;46083;-70
2022/08/27 00:08:41;;;;;;;11.20;6.70;;;20.00;43.50;;;;;;4980025;28;46328;-69
2022/08/27 00:11:08;;;;;;;8.50;5.97;;;19.90;44.40;;;;;;4978012;28;46518;-68
2022/08/27 00:13:35;;;;;;;9.60;6.43;;;;;;;;;;4980844;28;46442;-68
2022/08/27 00:16:02;;;;;;;10.53;6.80;;;20.10;43.40;;;;;;4979978;28;46372;-66
2022/08/27 00:18:28;;;;;;;12.23;6.33;;;;;;;;;;4976739;28;46454;-67
2022/08/27 00:20:54;;;;;;;16.33;6.40;;;;;;;;;;4981094;28;46319;-67
2022/08/27 00:23:19;;;;;;;15.47;6.17;;;20.10;45.00;;;;;;4980831;28;46470;-68
2022/08/27 00:25:45;;;;;;;11.50;6.60;;;20.50;44.20;;;;;;4979405;28;46446;-68
2022/08/27 00:28:11;;;;;;;10.23;6.47;;;;;;;;;;4980796;28;46522;-69
2022/08/27 00:30:38;;;;;;;17.37;6.50;;;;;;;;;;4980389;28;46423;-68
2022/08/27 00:33:04;;;;;;;15.50;6.87;;;20.00;44.00;;;;;;4978059;28;45928;-68
2022/08/27 00:35:30;;;;;;;13.60;6.43;;;;;;;;;;4981886;28;47195;-68
2022/08/27 00:37:56;;;;;;;11.43;6.77;;;20.00;44.60;;;;;;4979952;28;46439;-68
2022/08/27 00:40:22;;;;;;;17.57;6.90;;;19.90;44.50;;;;;;4980689;28;46503;-68
2022/08/27 00:42:49;;;;;;;16.13;6.67;;;19.90;44.70;;;;;;4981252;28;46372;-68
2022/08/27 00:45:18;;;;;;;12.87;6.57;;;19.90;44.70;;;;;;4980681;28;46633;-69
2022/08/27 00:47:48;;;;;;;12.23;6.63;;;19.90;47.40;;;;;;4981720;28;46385;-67
2022/08/27 00:50:18;;;;;;;15.63;6.53;;;19.90;49.10;;;;;;4978129;28;46636;-69
2022/08/27 00:52:52;;;;;;;12.20;6.30;;;19.90;45.10;;;;;;4981297;28;46664;-68
2022/08/27 00:55:21;;;;;;;10.67;6.20;;;20.00;49.20;;;;;;4980172;28;49003;-69
2022/08/27 00:57:56;;;;;;;11.07;6.00;;;19.70;48.80;;;;;;4978408;28;46443;-69
2022/08/27 01:00:22;;;;;;;7.17;5.03;;;20.20;46.90;;;;;;4979961;28;46631;-68
2022/08/27 01:02:48;;;;;;;9.13;6.27;;;;;;;;;;4981619;28;46490;-68
2022/08/27 01:05:20;;;;;;;9.80;5.50;;;19.80;46.40;;;;;;4980552;28;46601;-68
2022/08/27 01:07:50;;;;;;;9.00;5.53;;;19.70;46.30;;;;;;4978171;28;46363;-69
2022/08/27 01:10:19;;;;;;;9.97;5.03;;;19.60;46.20;;;;;;4980872;28;46420;-69
2022/08/27 01:12:45;;;;;;;9.53;5.00;;;19.60;49.20;;;;;;4981015;28;46592;-68
2022/08/27 01:15:15;;;;;;;7.63;4.00;;;19.60;46.70;;;;;;4980719;28;46435;-68
2022/08/27 01:17:43;;;;;;;6.73;4.43;;;19.50;47.20;;;;;;4980178;28;46414;-67
2022/08/27 01:20:21;;;;;;;14.13;5.10;;;19.40;47.50;;;;;;4980853;28;46450;-68
2022/08/27 01:23:17;;;;;;;5.90;4.27;;;19.40;48.00;;;;;;4978345;28;45797;-69
2022/08/27 01:25:44;;;;;;;7.53;4.40;;;19.30;47.90;;;;;;4980113;28;46352;-69
2022/08/27 01:28:10;;;;;;;6.70;4.50;;;19.30;48.00;;;;;;4981931;28;46555;-69
2022/08/27 01:30:36;;;;;;;9.80;4.93;;;19.60;49.30;;;;;;4979810;28;46435;-67
2022/08/27 01:33:18;;;;;;;8.50;4.67;;;19.20;48.80;;;;;;4981045;28;46479;-68
2022/08/27 01:35:46;;;;;;;6.90;3.80;;;19.10;49.60;;;;;;4979434;28;47946;-68
2022/08/27 01:38:14;;;;;;;5.80;4.40;;;19.40;54.40;;;;;;4979565;28;46535;-69
2022/08/27 01:40:40;;;;;;;4.73;3.40;;;;;;;;;;4978603;28;46530;-69
2022/08/27 01:43:06;;;;;;;9.50;3.83;;;19.00;54.50;;;;;;4980582;28;46559;-68
2022/08/27 01:45:36;;;;;;;5.00;3.23;;;18.80;50.40;;;;;;4979968;28;46401;-68
2022/08/27 01:48:02;;;;;;;4.17;3.10;;;18.80;55.10;;;;;;4979543;28;46985;-68
2022/08/27 01:50:34;;;;;;;4.07;2.50;;;19.00;55.00;;;;;;4979296;28;46445;-67
2022/08/27 01:53:12;;;;;;;5.03;2.27;;;18.90;50.20;;;;;;4976774;28;46406;-69
2022/08/27 01:55:41;;;;;;;6.73;2.67;;;18.60;52.70;;;;;;4980240;28;47301;-67
2022/08/27 01:58:07;;;;;;;4.60;2.37;;;19.00;55.20;;;;;;4977381;28;46332;-69
2022/08/27 02:00:37;;;;;;;3.20;2.10;;;18.80;50.40;;;;;;4980797;28;46437;-68
2022/08/27 02:03:04;;;;;;;4.40;2.40;;;18.50;50.60;;;;;;4978458;28;46379;-68
2022/08/27 02:05:30;;;;;;;3.90;2.30;;;18.80;51.70;;;;;;4980146;28;46187;-69
2022/08/27 02:07:56;;;;;;;5.23;2.50;;;18.80;54.90;;;;;;4977853;28;46400;-69
2022/08/27 02:10:30;;;;;;;5.30;2.50;;;18.90;55.90;;;;;;4980304;28;46366;-68
2022/08/27 02:12:56;;;;;;;4.67;2.10;;;18.60;55.50;;;;;;4979885;28;46340;-68
2022/08/27 02:15:23;;;;;;;3.77;2.37;;;18.80;55.50;;;;;;4980795;28;46758;-69
2022/08/27 02:17:49;;;;;;;7.93;2.50;;;18.90;50.40;;;;;;4977578;28;46468;-69
2022/08/27 02:20:16;;;;;;;4.67;2.87;;;18.90;51.60;;;;;;4978880;28;46498;-68
2022/08/27 02:22:42;;;;;;;3.90;2.07;;;18.90;50.10;;;;;;4982020;28;46423;-69
2022/08/27 02:25:12;;;;;;;5.10;2.40;;;19.10;52.80;;;;;;4983333;28;46263;-69
2022/08/27 02:27:38;;;;;;;4.70;2.87;;;18.90;50.30;;;;;;4980942;28;46367;-68
2022/08/27 02:30:05;;;;;;;7.67;3.30;;;;;;;;;;4984244;28;46543;-68
2022/08/27 02:32:31;;;;;;;4.50;2.90;;;;;;;;;;4987746;28;46521;-68
2022/08/27 02:34:57;;;;;;;7.73;3.20;;;;;;;;;;4982700;28;46472;-68
2022/08/27 02:37:22;;;;;;;5.83;2.60;;;18.90;50.40;;;;;;4983105;28;46201;-69
2022/08/27 02:39:48;;;;;;;4.70;3.30;;;18.80;50.60;;;;;;4982582;28;46426;-69
2022/08/27 02:42:14;;;;;;;5.23;3.27;;;18.90;55.80;;;;;;4982771;28;46417;-68
2022/08/27 02:44:40;;;;;;;8.63;3.50;;;;;;;;;;4998163;28;49179;-68
2022/08/27 02:47:06;;;;;;;5.27;3.50;;;;;;;;;;4982404;28;46004;-69
2022/08/27 02:49:32;;;;;;;9.97;3.57;;;;;;;;;;4983871;28;46318;-69
2022/08/27 02:51:58;;;;;;;5.57;3.70;;;;;;;;;;4981145;28;46375;-68
2022/08/27 02:54:25;;;;;;;4.90;3.40;;;18.90;51.10;;;;;;4983082;28;46425;-68
2022/08/27 02:56:53;;;;;;;5.40;3.63;;;18.80;55.50;;;;;;4982396;28;46465;-69
2022/08/27 02:59:19;;;;;;;5.70;3.60;;;18.80;50.80;;;;;;4982629;28;46706;-68
2022/08/27 03:01:45;;;;;;;4.83;3.60;;;;;;;;;;4979419;28;46498;-69
2022/08/27 03:04:10;;;;;;;6.97;3.50;;;18.90;51.80;;;;;;4982514;28;46401;-69
2022/08/27 03:06:36;;;;;;;9.27;3.73;;;;;;;;;;4980603;28;46513;-69
2022/08/27 03:09:04;;;;;;;5.73;3.53;;;18.80;51.60;;;;;;4983034;28;46435;-68
2022/08/27 03:11:30;;;;;;;6.20;3.73;;;18.70;55.00;;;;;;4981054;28;46364;-69
2022/08/27 03:13:57;;;;;;;6.30;4.03;;;18.60;55.70;;;;;;4982168;28;47308;-69
2022/08/27 03:16:23;;;;;;;5.50;3.73;;;18.70;53.20;;;;;;4980513;28;46525;-68
2022/08/27 03:18:50;;;;;;;6.63;4.20;;;;;;;;;;4982369;28;46390;-68
2022/08/27 03:21:23;;;;;;;5.80;3.90;;;18.80;52.00;;;;;;4981867;28;46455;-68
2022/08/27 03:23:49;;;;;;;6.10;4.47;;;;;;;;;;4980174;28;47142;-70
2022/08/27 03:26:15;;;;;;;7.50;4.53;;;;;;;;;;4980448;28;46455;-69
2022/08/27 03:28:41;;;;;;;7.20;4.30;;;;;;;;;;4981770;28;46379;-68
2022/08/27 03:31:21;;;;;;;6.77;4.50;;;18.80;52.70;;;;;;4979921;28;46418;-68
2022/08/27 03:33:47;;;;;;;7.73;4.30;;;18.70;52.60;;;;;;4980432;28;47179;-68
2022/08/27 03:36:13;;;;;;;7.37;4.60;;;;;;;;;;4980364;28;46384;-68
2022/08/27 03:38:39;;;;;;;6.30;4.27;;;18.70;58.50;;;;;;4980268;28;46464;-67
2022/08/27 03:41:05;;;;;;;5.17;3.90;;;18.70;53.20;;;;;;4981906;28;46640;-68
2022/08/27 03:43:34;;;;;;;9.33;4.53;;;18.90;59.30;;;;;;4980980;28;47359;-68
2022/08/27 03:46:00;;;;;;;8.60;4.77;;;;;;;;;;4981527;28;46467;-68
2022/08/27 03:48:27;;;;;;;9.17;5.30;;;;;;;;;;4981858;28;46436;-68
2022/08/27 03:50:53;;;;;;;8.60;5.07;;;;;;;;;;4980740;28;46723;-68
2022/08/27 03:53:21;;;;;;;8.00;5.23;;;;;;;;;;4980880;28;47130;-68
2022/08/27 03:55:48;;;;;;;10.97;5.87;;;;;;;;;;4981927;28;46385;-69
2022/08/27 03:58:14;;;;;;;7.87;5.40;;;18.60;54.70;;;;;;4982021;28;46418;-68
2022/08/27 04:00:40;;;;;;;7.40;5.07;;;;;;;;;;4982092;28;46397;-69
2022/08/27 04:03:06;;;;;;;11.30;6.03;;;18.60;61.60;;;;;;4982278;28;46265;-68
2022/08/27 04:05:33;;;;;;;9.40;6.60;;;18.70;58.70;;;;;;4981927;28;46394;-67
2022/08/27 04:07:59;;;;;;;8.47;5.30;;;18.40;62.40;;;;;;4980420;28;46473;-68
2022/08/27 04:10:26;;;;;;;10.80;5.80;;;;;;;;;;4980481;28;46435;-68
2022/08/27 04:12:51;;;;;;;8.40;6.00;;;19.00;59.20;;;;;;4981676;28;47102;-67
2022/08/27 04:15:17;;;;;;;9.73;6.50;;;18.70;59.00;;;;;;4980809;28;46375;-68
2022/08/27 04:17:43;;;;;;;10.20;6.70;;;;;;;;;;4981721;28;46312;-68
2022/08/27 04:20:09;;;;;;;9.77;5.37;;;18.70;55.60;;;;;;4981527;28;46376;-68
2022/08/27 04:22:35;;;;;;;9.37;6.10;;;18.80;55.60;;;;;;4981336;28;47267;-68
2022/08/27 04:25:01;;;;;;;13.07;6.30;;;18.90;55.60;;;;;;4980429;28;45899;-68
2022/08/27 04:27:27;;;;;;;11.57;7.07;;;;;;;;;;4980534;28;46502;-69
2022/08/27 04:29:58;;;;;;;9.70;6.50;;;18.80;55.60;;;;;;4980527;28;46647;-69
2022/08/27 04:32:25;;;;;;;8.47;6.10;;;18.90;55.50;;;;;;4979475;28;47204;-68
2022/08/27 04:34:55;;;;;;;9.07;6.20;;;18.90;55.50;;;;;;4978894;28;46974;-68
2022/08/27 04:37:21;;;;;;;10.20;6.80;;;19.00;63.00;;;;;;4977312;28;46395;-68
2022/08/27 04:39:47;;;;;;;10.37;6.93;;;;;;;;;;4980262;28;46403;-68
2022/08/27 04:42:13;;;;;;;12.47;7.13;;;;;;;;;;4994109;28;46517;-68
2022/08/27 04:44:39;;;;;;;13.57;6.77;;;;;;;;;;4978501;28;46459;-68
2022/08/27 04:47:05;;;;;;;10.90;6.80;;;;;;;;;;4979813;28;46302;-68
2022/08/27 04:49:32;;;;;;;10.07;7.17;;;;;;;;;;4978731;28;46539;-68
2022/08/27 04:51:58;;;;;;;13.67;6.80;;;;;;;;;;4977472;28;46840;-68
2022/08/27 04:54:24;;;;;;;8.47;5.97;;;19.00;59.30;;;;;;4978737;28;46472;-68
2022/08/27 04:56:50;;;;;;;11.20;6.80;;;19.10;55.60;;;;;;4980223;28;46372;-68
2022/08/27 04:59:16;;;;;;;10.63;6.77;;;;;;;;;;4980172;28;46612;-68
2022/08/27 05:01:42;;;;;;;13.17;6.43;;;19.00;55.80;;;;;;4978292;28;46507;-68
2022/08/27 05:04:11;;;;;;;16.20;6.77;;;19.10;55.90;;;;;;4981588;28;46376;-68
2022/08/27 05:06:37;;;;;;;10.70;6.93;;;;;;;;;;4979683;28;46755;-68
2022/08/27 05:09:04;;;;;;;8.87;6.10;;;18.90;63.10;;;;;;4979697;28;46526;-68
2022/08/27 05:11:33;;;;;;;9.13;6.47;;;;;;;;;;4980751;28;46586;-69
2022/08/27 05:14:02;;;;;;;10.63;6.20;;;19.10;55.70;;;;;;4979536;28;46526;-68
2022/08/27 05:16:28;;;;;;;11.50;5.90;;;19.00;55.90;;;;;;4980531;28;46462;-68
2022/08/27 05:18:54;;;;;;;10.27;6.17;;;19.10;59.70;;;;;;4978240;28;46463;-67
2022/08/27 05:21:23;;;;;;;8.50;6.10;;;19.30;55.40;;;;;;4979879;28;46503;-69
2022/08/27 05:23:49;;;;;;;8.70;6.00;;;19.10;56.60;;;;;;4979341;28;45785;-69
2022/08/27 05:26:15;;;;;;;8.90;5.70;;;19.60;59.40;;;;;;4979895;28;46458;-69
2022/08/27 05:28:41;;;;;;;8.60;5.70;;;19.30;55.90;;;;;;4979526;28;46442;-69
2022/08/27 05:31:12;;;;;;;11.43;6.57;;;19.60;58.60;;;;;;4979602;28;47224;-68
2022/08/27 05:33:39;;;;;;;9.07;4.80;;;19.20;61.70;;;;;;4992877;28;46634;-68
2022/08/27 05:36:05;;;;;;;10.53;6.00;;;19.30;55.50;;;;;;4978051;28;46621;-69
2022/08/27 05:38:31;;;;;;;9.23;5.43;;;19.50;57.60;;;;;;4978242;28;46442;-67
2022/08/27 05:41:04;;;;;;;7.80;5.37;;;19.70;61.90;;;;;;4979107;28;48066;-69
2022/08/27 05:43:30;;;;;;;7.93;4.80;;;19.20;61.20;;;;;;4979823;28;46706;-69
2022/08/27 05:45:56;;;;;;;8.40;5.20;;;19.30;59.10;;;;;;4979782;28;46346;-70
2022/08/27 05:48:22;;;;;;;7.70;4.60;;;19.70;56.70;;;;;;4980819;28;46453;-68
2022/08/27 05:50:48;;;;;;;7.13;4.83;;;;;;;;;;4977706;28;47296;-68
2022/08/27 05:53:14;;;;;;;7.33;4.60;;;;;;;;;;4979240;28;46496;-68
2022/08/27 05:55:42;;;;;;;7.47;5.40;;;19.40;55.30;;;;;;4983148;28;46391;-68
2022/08/27 06:01:03;;;;;;;10.60;4.27;;;19.40;55.00;;;;;;4982319;28;46191;-68
2022/08/27 06:01:04;;;;;;;7.10;4.50;;;19.70;57.70;;;;;;4980982;28;46738;-68
2022/08/27 06:03:35;;;;;;;6.70;4.47;;;19.40;57.10;;;;;;4981992;28;46416;-69
2022/08/27 06:06:07;;;;;;;6.40;4.50;;;19.60;55.30;;;;;;4984195;28;46503;-68
2022/08/27 06:08:34;;;;;;;9.20;5.73;;;19.30;56.50;;;;;;4983229;28;46573;-69
2022/08/27 06:11:01;;;;;;;7.33;5.20;;;19.50;60.00;;;;;;4983080;28;46750;-69
2022/08/27 06:13:28;;;;;;;10.87;5.20;;;19.40;55.50;;;;;;4983363;28;45961;-68
2022/08/27 06:16:06;;;;;;;8.13;5.63;;;19.50;55.50;;;;;;4982471;28;46313;-70
2022/08/27 06:18:32;;;;;;;11.50;5.27;;;19.40;55.30;;;;;;4981728;28;46021;-68
2022/08/27 06:20:58;;;;;;;9.00;5.50;;;19.50;55.40;;;;;;4983896;28;46449;-68
2022/08/27 06:23:24;;;;;;;8.40;6.13;;;;;;;;;;4983971;28;46736;-69
2022/08/27 06:25:50;;;;;;;11.00;6.10;;;;;;;;;;4982766;28;46816;-68
2022/08/27 06:28:19;;;;;;;20.57;6.30;;;19.30;57.30;;;;;;4982857;28;46574;-68
2022/08/27 06:30:45;;;;;;;10.17;6.03;;;;;;;;;;4983460;28;47232;-68
2022/08/27 06:33:11;;;;;;;8.73;6.50;;;;;;;;;;4983935;28;46417;-67
2022/08/27 06:35:37;;;;;;;10.70;6.80;;;19.70;57.40;;;;;;4983815;28;46364;-67
2022/08/27 06:38:03;;;;;;;14.33;6.40;;;;;;;;;;4983682;28;46345;-68
2022/08/27 06:40:29;;;;;;;11.13;7.00;;;;;;;;;;4981084;28;46529;-68
2022/08/27 06:42:56;;;;;;;8.90;6.33;;;;;;;;;;4989217;28;46687;-70
2022/08/27 06:45:22;;;;;;;10.00;6.40;;;;;;;;;;4982862;28;46315;-69
2022/08/27 06:47:48;;;;;;;8.47;6.00;;;;;;;;;;4983457;28;46540;-68
2022/08/27 06:50:14;;;;;;;9.70;7.33;;;;;;;;;;4977842;28;46489;-70
2022/08/27 06:52:40;;;;;;;9.50;6.30;;;;;;;;;;4981386;28;47037;-68
2022/08/27 06:55:06;;;;;;;10.43;6.73;;;19.50;59.40;;;;;;4982297;28;46658;-70
2022/08/27 06:57:32;;;;;;;12.10;7.23;;;;;;;;;;4981297;28;46618;-68
2022/08/27 06:59:58;;;;;;;12.03;7.20;;;;;;;;;;4980097;28;46527;-70
2022/08/27 07:02:24;;;;;;;12.00;7.53;;;;;;;;;;4981813;28;46478;-71
2022/08/27 07:04:52;;;;;;;12.50;7.97;;;19.70;55.90;;;;;;4982363;28;46433;-69
2022/08/27 07:07:18;;;;;;;11.43;8.00;;;19.60;55.60;;;;;;4978035;28;46475;-69
2022/08/27 07:09:44;;;;;;;10.97;7.70;;;20.00;58.20;;;;;;4980496;28;47005;-68
2022/08/27 07:12:10;;;;;;;11.93;7.43;;;;;;;;;;4979945;28;46486;-71
2022/08/27 07:14:36;;;;;;;10.40;7.93;;;;;;;;;;4980090;28;46800;-68
2022/08/27 07:17:01;;;;;;;11.07;7.70;;;20.00;56.00;;;;;;4980531;28;46465;-69
2022/08/27 07:19:29;;;;;;;14.63;7.30;;;;;;;;;;4980558;28;46942;-68
2022/08/27 07:21:55;;;;;;;9.73;7.27;;;;;;;;;;4981151;28;46398;-69
2022/08/27 07:24:21;;;;;;;8.57;6.33;;;;;;;;;;4981406;28;46692;-69
2022/08/27 07:26:47;;;;;;;11.03;8.10;;;;;;;;;;4983053;28;46516;-68
2022/08/27 07:29:14;;;;;;;12.00;8.00;;;20.50;54.70;;;;;;4982368;28;46962;-70
2022/08/27 07:31:40;;;;;;;13.00;8.50;;;20.60;54.60;;;;;;4982235;28;46379;-71
2022/08/27 07:34:06;;;;;;;11.07;8.60;;;21.00;58.40;;;;;;4981913;28;46389;-69
2022/08/27 07:36:33;;;;;;;15.57;8.83;;;20.30;57.70;;;;;;4980871;28;46891;-69
2022/08/27 07:38:58;;;;;;;14.90;9.37;;;20.40;60.10;;;;;;4981798;28;47070;-71
2022/08/27 07:41:24;;;;;;;13.10;8.87;;;;;;;;;;4982527;28;45829;-68
2022/08/27 07:46:35;;;;;;;15.43;9.30;;;20.90;56.60;;;;;;4982605;28;45884;-68
2022/08/27 07:49:01;;;;;;;13.63;9.73;;;;;;;;;;4982144;28;46996;-69
2022/08/27 07:51:31;;;;;;;13.23;9.50;;;21.10;54.20;;;;;;4982174;28;46543;-69
2022/08/27 07:53:57;;;;;;;12.77;9.30;;;;;;;;;;4982362;28;46360;-69
2022/08/27 07:56:23;;;;;;;16.83;9.43;;;21.20;54.00;;;;;;4982880;28;46780;-69
2022/08/27 07:58:49;;;;;;;14.80;9.43;;;21.30;54.20;;;;;;4981642;28;46947;-69
2022/08/27 08:01:14;;;;;;;14.57;9.67;;;21.40;59.00;;;;;;4981309;28;46471;-69
2022/08/27 08:03:40;;;;;;;14.90;8.80;;;;;;;;;;4996906;28;46482;-70
2022/08/27 08:06:09;;;;;;;14.73;10.07;;;21.80;53.00;;;;;;4981406;28;46605;-69
2022/08/27 08:08:35;;;;;;;13.40;10.00;;;21.70;55.00;;;;;;4980208;28;46433;-69
2022/08/27 08:11:02;;;;;;;12.53;9.00;;;21.40;58.30;;;;;;4981550;28;46461;-69
2022/08/27 08:13:29;;;;;;;17.50;9.80;;;21.80;54.70;;;;;;4982364;28;46567;-70
2022/08/27 08:15:56;;;;;;;11.87;9.03;;;21.50;52.70;;;;;;4983214;28;46562;-69
2022/08/27 08:18:21;;;;;;;13.10;8.83;;;21.80;58.30;;;;;;4979642;28;46457;-69
2022/08/27 08:20:48;;;;;;;13.20;9.40;;;21.40;53.30;;;;;;4981843;28;46358;-68
2022/08/27 08:23:14;;;;;;;10.67;7.87;;;20.90;57.60;;;;;;4982785;28;46353;-69
2022/08/27 08:25:40;;;;;;;19.80;8.37;;;21.40;52.80;;;;;;4982090;28;46439;-70
2022/08/27 08:28:06;;;;;;;11.80;7.73;;;21.30;57.00;;;;;;4981722;28;47177;-67
2022/08/27 08:30:32;;;;;;;13.00;8.40;;;;;;;;;;4980180;28;46324;-69
2022/08/27 08:32:58;;;;;;;11.77;8.40;;;;;;;;;;4981257;28;46799;-69
2022/08/27 08:35:24;;;;;;;10.87;7.77;;;21.80;51.90;;;;;;4986502;28;46709;-69
2022/08/27 08:37:49;;;;;;;12.67;7.67;;;22.10;55.40;;;;;;4981588;28;46434;-69
2022/08/27 08:40:34;;;;;;;17.83;8.33;;;22.00;56.30;;;;;;4980945;28;46368;-69
2022/08/27 08:43:00;;;;;;;10.07;7.17;;;21.80;56.10;;;;;;4980826;28;46515;-69
2022/08/27 08:45:30;;;;;;;14.30;8.10;;;22.50;55.70;;;;;;4981376;28;46312;-70
2022/08/27 08:48:07;;;;;;;11.30;7.37;;;22.80;50.40;;;;;;4981517;28;46446;-70
2022/08/27 08:51:07;;;;;;;13.63;8.23;;;22.60;48.90;;;;;;4981111;28;46399;-70
2022/08/27 08:53:47;;;;;;;11.03;7.77;;;23.00;51.60;;;;;;4981706;28;46376;-68
2022/08/27 08:56:51;;;;;;;10.67;7.20;;;22.70;53.50;;;;;;4981160;28;46464;-68
2022/08/27 08:59:26;;;;;;;17.20;8.07;;;22.80;52.90;;;;;;4982107;28;46359;-69
2022/08/27 09:01:53;;;;;;;12.10;8.10;;;;;;;;;;4980011;28;46449;-69
2022/08/27 09:04:19;;;;;;;9.70;6.97;;;22.90;51.50;;;;;;4979742;28;46451;-70
2022/08/27 09:06:58;;;;;;;12.87;8.60;;;22.90;47.50;;;;;;4981189;28;46408;-70
2022/08/27 09:09:36;;;;;;;12.97;7.30;;;22.80;51.60;;;;;;4981116;28;47399;-70
2022/08/27 09:12:14;;;;;;;20.67;7.47;;;23.00;50.90;;;;;;4981493;28;46459;-68
2022/08/27 09:14:54;;;;;;;13.47;8.00;;;23.10;49.10;;;;;;4980852;28;46371;-69
2022/08/27 09:17:20;;;;;;;12.23;7.93;;;;;;;;;;4980646;28;45759;-69
2022/08/27 09:19:46;;;;;;;10.47;7.43;;;;;;;;;;4981122;28;46980;-69
2022/08/27 09:22:23;;;;;;;13.00;7.00;;;23.60;44.60;;;;;;4980316;28;46375;-69
2022/08/27 09:25:10;;;;;;;10.20;7.73;;;23.60;44.40;;;;;;4979774;28;46454;-68
2022/08/27 09:27:40;;;;;;;11.57;6.60;;;23.80;48.50;;;;;;4980586;28;46442;-69
2022/08/27 09:30:12;;;;;;;9.00;7.37;;;23.70;44.70;;;;;;4980702;28;46447;-69
2022/08/27 09:32:38;;;;;;;10.67;7.60;;;23.70;44.40;;;;;;4978186;28;45781;-69
2022/08/27 09:35:10;;;;;;;12.77;7.63;;;23.90;43.40;;;;;;4981319;28;46429;-69
2022/08/27 09:37:43;;;;;;;11.13;7.27;;;23.90;45.40;;;;;;4979517;28;46460;-69
2022/08/27 09:40:30;;;;;;;14.43;6.77;;;24.30;42.00;;;;;;4978160;28;46584;-69
2022/08/27 09:43:04;;;;;;;11.63;7.50;;;24.60;47.00;;;;;;4980771;28;46451;-69
2022/08/27 09:45:30;;;;;;;14.13;7.10;;;;;;;;;;4979506;28;46254;-69
2022/08/27 09:48:13;;;;;;;11.97;6.77;;;24.20;41.60;;;;;;4980179;28;46498;-71
2022/08/27 09:50:57;;;;;;;11.33;6.77;;;24.20;41.10;;;;;;4980762;28;46131;-69
2022/08/27 09:53:34;;;;;;;8.83;6.23;;;24.20;46.10;;;;;;4980683;28;46470;-70
2022/08/27 09:56:02;;;;;;;9.90;6.17;;;24.00;45.50;;;;;;4980688;28;46375;-70
2022/08/27 09:58:45;;;;;;;10.20;6.60;;;23.80;41.10;;;;;;4978460;28;46364;-68
2022/08/27 10:01:20;;;;;;;13.17;7.00;;;23.90;41.10;;;;;;4979086;28;46574;-71
2022/08/27 10:03:46;;;;;;;10.77;6.97;;;24.40;42.60;;;;;;4979688;28;46300;-70
2022/08/27 10:06:12;;;;;;;9.77;6.77;;;;;;;;;;4978835;28;45840;-70
2022/08/27 10:08:44;;;;;;;10.77;6.70;;;24.10;40.20;;;;;;4980922;28;46678;-69
2022/08/27 10:11:19;;;;;;;10.63;7.17;;;24.30;45.70;;;;;;4979644;28;47302;-69
2022/08/27 10:13:57;;;;;;;8.57;6.20;;;24.00;40.00;;;;;;4978521;28;46427;-69
2022/08/27 10:16:23;;;;;;;9.00;6.47;;;;;;;;;;4980280;28;46422;-69
2022/08/27 10:18:57;;;;;;;10.17;7.00;;;24.20;43.90;;;;;;4980145;28;46403;-69
2022/08/27 10:21:28;;;;;;;9.87;7.00;;;24.00;43.80;;;;;;4980434;28;47074;-70
2022/08/27 10:24:07;;;;;;;11.13;6.43;;;24.20;37.90;;;;;;4982134;28;46467;-69
2022/08/27 10:27:17;;;;;;;11.23;7.57;;;24.20;37.70;;;;;;4980176;28;46469;-70
2022/08/27 10:30:04;;;;;;;14.60;6.90;;;24.10;39.90;;;;;;4945269;28;46484;-68
2022/08/27 10:32:56;;;;;;;9.73;6.03;;;24.00;38.00;;;;;;4979242;28;46140;-70
2022/08/27 10:35:27;;;;;;;9.47;6.40;;;23.50;40.40;;;;;;4978831;28;46380;-69
2022/08/27 10:38:15;;;;;;;10.23;6.40;;;24.10;43.60;;;;;;4980201;28;46527;-69
2022/08/27 10:41:01;;;;;;;10.87;6.53;;;24.30;36.90;;;;;;4979107;28;47249;-69
2022/08/27 10:43:46;;;;;;;11.23;6.10;;;24.60;42.10;;;;;;4981436;28;46457;-70
2022/08/27 10:46:30;;;;;;;8.40;5.67;;;24.80;40.40;;;;;;4983057;28;45729;-71
2022/08/27 10:48:56;;;;;;;10.47;7.13;;;;;;;;;;4977933;28;46852;-69
2022/08/27 10:51:42;;;;;;;8.77;5.87;;;24.80;41.40;;;;;;4981672;28;46568;-68
2022/08/27 10:54:35;;;;;;;9.40;6.13;;;24.40;37.90;;;;;;4980539;28;46551;-70
2022/08/27 10:57:17;;;;;;;10.20;5.97;;;24.70;37.50;;;;;;4978304;28;46733;-71
2022/08/27 10:59:59;;;;;;;9.90;5.83;;;24.80;36.10;;;;;;4980481;28;46411;-70
2022/08/27 11:02:34;;;;;;;11.27;6.20;;;24.70;35.80;;;;;;4979302;28;45968;-71
2022/08/27 11:05:11;;;;;;;9.80;5.80;;;24.60;41.10;;;;;;4978867;28;46744;-69
2022/08/27 11:07:42;;;;;;;9.13;5.80;;;24.80;35.80;;;;;;4979676;28;45890;-70
2022/08/27 11:10:29;;;;;;;8.57;5.83;;;24.90;35.40;;;;;;4982721;28;46022;-69
2022/08/27 11:13:30;;;;;;;10.93;5.87;;;24.90;35.50;;;;;;4982005;28;46435;-70
2022/08/27 11:15:58;;;;;;;8.97;5.40;;;24.90;36.40;;;;;;4979154;28;46504;-68
2022/08/27 11:18:43;;;;;;;9.87;5.97;;;25.00;34.60;;;;;;4978931;28;46466;-69
2022/08/27 11:21:18;;;;;;;11.93;4.60;;;25.30;35.20;;;;;;4996644;28;46424;-68
2022/08/27 11:23:51;;;;;;;11.63;5.70;;;24.80;34.70;;;;;;4981010;28;46619;-69
2022/08/27 11:26:17;;;;;;;8.60;5.00;;;;;;;;;;4980881;28;46925;-69
2022/08/27 11:28:47;;;;;;;8.20;3.90;;;24.80;34.50;;;;;;4981161;28;46675;-69
2022/08/27 11:31:21;;;;;;;7.43;4.03;;;25.20;39.80;;;;;;4981169;28;46291;-69
2022/08/27 11:34:02;;;;;;;8.53;4.60;;;25.20;39.00;;;;;;4980989;28;46427;-68
2022/08/27 11:36:36;;;;;;;7.57;4.70;;;25.10;35.30;;;;;;4980129;28;46446;-67
2022/08/27 11:39:22;;;;;;;6.87;3.80;;;24.80;32.40;;;;;;4977876;28;46445;-68
2022/08/27 11:42:03;;;;;;;7.27;5.40;;;25.30;32.20;;;;;;4979092;28;46279;-70
2022/08/27 11:44:29;;;;;;;10.30;4.63;;;;;;;;;;4979575;28;46773;-69
2022/08/27 11:47:17;;;;;;;10.13;3.87;;;25.20;30.70;;;;;;4978650;28;47003;-68
2022/08/27 11:49:47;;;;;;;8.20;4.00;;;25.30;30.00;;;;;;4979208;28;46456;-69
2022/08/27 11:52:24;;;;;;;8.80;4.70;;;25.40;29.80;;;;;;4978419;28;46440;-70
2022/08/27 11:54:54;;;;;;;6.00;4.43;;;25.60;28.90;;;;;;4977635;28;46471;-68
2022/08/27 11:57:35;;;;;;;6.77;4.40;;;25.40;28.90;;;;;;4978585;28;46656;-68
2022/08/27 12:00:26;;;;;;;7.00;3.67;;;25.40;34.40;;;;;;4979624;28;46482;-69
2022/08/27 12:03:22;;;;;;;7.13;3.33;;;25.10;34.20;;;;;;4978343;28;46408;-69
2022/08/27 12:05:53;;;;;;;9.07;3.80;;;24.90;29.40;;;;;;4978196;28;46437;-69
2022/08/27 12:08:22;;;;;;;7.17;3.83;;;24.60;29.50;;;;;;4978934;28;46729;-69
2022/08/27 12:11:26;;;;;;;10.40;3.90;;;24.60;30.00;;;;;;4978306;28;46363;-69
2022/08/27 12:14:13;;;;;;;6.67;3.87;;;25.10;30.40;;;;;;4979796;28;46542;-70
2022/08/27 12:16:57;;;;;;;5.17;3.53;;;24.60;30.00;;;;;;4979654;28;46444;-69
2022/08/27 12:19:41;;;;;;;6.43;3.90;;;24.60;34.70;;;;;;4978677;28;46467;-69
2022/08/27 12:22:14;;;;;;;8.50;3.50;;;24.70;29.80;;;;;;4979671;28;46340;-69
2022/08/27 12:24:48;;;;;;;5.97;3.13;;;24.80;29.00;;;;;;4979801;28;46568;-69
2022/08/27 12:27:35;;;;;;;7.63;3.70;;;24.80;28.70;;;;;;4979677;28;45892;-69
2022/08/27 12:30:06;;;;;;;6.57;3.77;;;25.00;28.20;;;;;;4979408;28;47204;-70
2022/08/27 12:32:53;;;;;;;7.07;3.30;;;25.10;32.50;;;;;;4977710;28;46239;-69
2022/08/27 12:35:19;;;;;;;6.53;4.50;;;;;;;;;;4980219;28;45928;-70
2022/08/27 12:37:55;;;;;;;5.67;3.80;;;26.00;25.60;;;;;;4978859;28;46634;-70
2022/08/27 12:40:24;;;;;;;5.70;3.90;;;26.10;25.70;;;;;;4976849;28;46803;-67
2022/08/27 12:43:02;;;;;;;4.67;3.17;;;25.60;29.30;;;;;;4976267;28;46287;-69
2022/08/27 12:45:29;;;;;;;8.93;3.60;;;25.50;28.40;;;;;;4979106;28;46677;-69
2022/08/27 12:47:56;;;;;;;7.73;3.63;;;25.90;25.60;;;;;;4977435;28;46483;-70
2022/08/27 12:50:29;;;;;;;6.00;4.00;;;26.30;29.20;;;;;;4980198;28;47322;-70
2022/08/27 12:53:13;;;;;;;8.93;3.60;;;26.10;28.70;;;;;;4980369;28;46538;-70
2022/08/27 12:56:06;;;;;;;7.30;4.33;;;25.90;25.60;;;;;;4978522;28;46494;-69
2022/08/27 12:58:59;;;;;;;7.80;3.53;;;26.00;25.60;;;;;;4976468;28;46820;-68
2022/08/27 13:01:40;;;;;;;5.50;3.50;;;25.80;26.60;;;;;;4977397;28;46427;-69
2022/08/27 13:04:17;;;;;;;7.87;3.40;;;26.20;25.20;;;;;;4977834;28;46451;-69
2022/08/27 13:06:44;;;;;;;8.10;4.00;;;26.10;28.80;;;;;;4977520;28;46562;-70
2022/08/27 13:09:11;;;;;;;5.93;3.50;;;26.20;24.60;;;;;;4978728;28;46360;-70
2022/08/27 13:11:54;;;;;;;6.70;3.57;;;26.30;24.70;;;;;;4979208;28;46395;-69
2022/08/27 13:14:21;;;;;;;8.40;4.00;;;26.50;23.40;;;;;;4978666;28;45805;-71
2022/08/27 13:17:01;;;;;;;8.67;3.47;;;26.80;27.30;;;;;;4977963;28;46501;-70
2022/08/27 13:19:41;;;;;;;6.80;4.00;;;26.60;27.80;;;;;;4980214;28;46614;-71
2022/08/27 13:22:07;;;;;;;7.03;4.60;;;26.70;27.50;;;;;;4978861;28;47237;-71
2022/08/27 13:24:43;;;;;;;19.50;9.40;;;26.00;28.10;;;;;;4977210;28;46874;-69
2022/08/27 13:27:09;;;;;;;18.43;9.43;;;;;;;;;;4978721;28;46536;-69
2022/08/27 13:29:35;;;;;;;19.77;10.27;;;25.10;32.00;;;;;;4979730;28;46639;-69